Time;durP1;ratioP1;P1;durP2;ratioP2;P2;SDS_P1;SDS_P2;PMS_P1;PMS_P2;Temp;Humidity;BMP_temperature;BMP_pressure;BME280_temperature;BME280_humidity;BME280_pressure;Samples;Min_cycle;Max_cycle;Signal;HPM_P1;HPM_P2
2023/12/05 00:03:45;;;;;;;;;;;;;;;-2.06;100.00;94743.31;10469867;28;2951;-71
2023/12/05 00:08:48;;;;;;;;;;;;;;;-2.06;100.00;94753.84;10470442;28;2878;-75
2023/12/05 00:13:50;;;;;;;;;;;;;;;-1.94;100.00;94770.53;10481537;28;2879;-72
2023/12/05 00:18:53;;;;;;;;;;;;;;;-1.95;100.00;94749.69;10479463;28;2842;-71
2023/12/05 00:23:56;;;;;;;;;;;;;;;-1.99;100.00;94757.22;10477370;28;2827;-73
2023/12/05 00:28:58;;;;;;;;;;;;;;;-1.87;100.00;94778.34;10477816;28;2796;-72
2023/12/05 00:34:01;;;;;;;;;;;;;;;-1.88;100.00;94800.47;10476444;28;3003;-72
2023/12/05 00:39:04;;;;;;;;;;;;;;;-1.87;100.00;94809.97;10477344;28;2808;-71
2023/12/05 00:44:07;;;;;;;;;;;;;;;-1.88;100.00;94808.38;10482374;28;4642;-72
2023/12/05 00:49:09;;;;;;;;;;;;;;;-1.76;100.00;94811.06;10476241;28;2942;-69
2023/12/05 00:54:12;;;;;;;;;;;;;;;-1.69;100.00;94802.06;10471056;28;2854;-71
2023/12/05 00:59:17;;;;;;;;;;;;;;;-1.60;100.00;94818.38;10471239;28;2946;-70
2023/12/05 01:04:19;;;;;;;;;;;;;;;-1.62;100.00;94823.06;10482304;28;2890;-69
2023/12/05 01:09:24;;;;;;;;;;;;;;;-1.55;100.00;94838.78;10477935;28;3004;-70
2023/12/05 01:14:26;;;;;;;;;;;;;;;-1.45;100.00;94849.63;10481745;28;2882;-69
2023/12/05 01:19:29;;;;;;;;;;;;;;;-1.52;100.00;94841.00;10479837;28;2963;-71
2023/12/05 01:24:32;;;;;;;;;;;;;;;-1.54;100.00;94825.38;10481191;28;3206;-73
2023/12/05 01:29:34;;;;;;;;;;;;;;;-1.49;100.00;94838.72;10482133;28;2816;-70
2023/12/05 01:34:36;;;;;;;;;;;;;;;-1.49;100.00;94843.19;10479833;28;2875;-70
2023/12/05 01:39:39;;;;;;;;;;;;;;;-1.37;100.00;94842.22;10476425;28;2891;-71
2023/12/05 01:44:42;;;;;;;;;;;;;;;-1.33;100.00;94842.59;10476233;28;4649;-72
2023/12/05 01:49:44;;;;;;;;;;;;;;;-1.20;100.00;94834.50;10481834;28;2796;-70
2023/12/05 01:54:47;;;;;;;;;;;;;;;-1.09;100.00;94833.72;10473946;28;2835;-70
2023/12/05 01:59:49;;;;;;;;;;;;;;;-1.02;100.00;94823.09;10465288;28;2895;-70
2023/12/05 02:04:52;;;;;;;;;;;;;;;-0.90;100.00;94817.84;10474513;28;2830;-69
2023/12/05 02:09:55;;;;;;;;;;;;;;;-0.84;100.00;94814.31;10464665;28;2951;-70
2023/12/05 02:14:57;;;;;;;;;;;;;;;-0.83;100.00;94826.47;10469420;28;2932;-70
2023/12/05 02:20:00;;;;;;;;;;;;;;;-0.78;100.00;94837.16;10473106;28;2864;-73
2023/12/05 02:25:03;;;;;;;;;;;;;;;-0.70;100.00;94831.56;10467828;28;2963;-72
2023/12/05 02:30:05;;;;;;;;;;;;;;;-0.64;100.00;94820.09;10471594;28;2872;-72
2023/12/05 02:35:08;;;;;;;;;;;;;;;-0.72;100.00;94815.13;10470368;28;2945;-71
2023/12/05 02:40:11;;;;;;;;;;;;;;;-0.78;100.00;94816.03;10462046;28;2879;-73
2023/12/05 02:45:13;;;;;;;;;;;;;;;-0.82;100.00;94817.53;10471102;28;4662;-71
2023/12/05 02:50:15;;;;;;;;;;;;;;;-0.78;100.00;94821.31;10466387;28;2866;-70
2023/12/05 02:55:18;;;;;;;;;;;;;;;-0.66;100.00;94810.78;10472144;28;2899;-71
2023/12/05 03:00:20;;;;;;;;;;;;;;;-0.59;100.00;94822.84;10469635;28;2871;-70
2023/12/05 03:05:23;;;;;;;;;;;;;;;-0.57;100.00;94835.84;10474364;28;3571;-72
2023/12/05 03:10:26;;;;;;;;;;;;;;;-0.57;100.00;94828.72;10466704;28;2864;-71
2023/12/05 03:15:28;;;;;;;;;;;;;;;-0.47;100.00;94819.44;10468311;28;2871;-71
2023/12/05 03:20:31;;;;;;;;;;;;;;;-0.46;100.00;94810.47;10464485;28;2849;-72
2023/12/05 03:25:33;;;;;;;;;;;;;;;-0.41;100.00;94800.03;10468937;28;2989;-71
2023/12/05 03:30:36;;;;;;;;;;;;;;;-0.36;100.00;94808.88;10503347;27;2900;-72
2023/12/05 03:35:38;;;;;;;;;;;;;;;-0.36;100.00;94789.59;10466019;28;2878;-72
2023/12/05 03:40:41;;;;;;;;;;;;;;;-0.38;100.00;94787.19;10466930;28;2803;-72
2023/12/05 03:45:43;;;;;;;;;;;;;;;-0.40;100.00;94793.72;10473440;28;2836;-72
2023/12/05 03:50:46;;;;;;;;;;;;;;;-0.43;100.00;94789.72;10476674;28;2899;-74
2023/12/05 03:55:48;;;;;;;;;;;;;;;-0.34;100.00;94793.59;10473603;28;2880;-73
2023/12/05 04:00:51;;;;;;;;;;;;;;;-0.34;100.00;94798.09;10474598;28;2921;-72
2023/12/05 04:05:53;;;;;;;;;;;;;;;-0.39;100.00;94804.03;10477848;28;3247;-78
2023/12/05 04:10:56;;;;;;;;;;;;;;;-0.39;100.00;94811.97;10475734;28;2882;-73
2023/12/05 04:15:58;;;;;;;;;;;;;;;-0.32;100.00;94817.97;10476004;28;2859;-73
2023/12/05 04:21:01;;;;;;;;;;;;;;;-0.35;100.00;94813.13;10477652;28;2859;-73
2023/12/05 04:26:03;;;;;;;;;;;;;;;-0.43;100.00;94804.75;10474603;28;2912;-73
2023/12/05 04:31:06;;;;;;;;;;;;;;;-0.29;100.00;94790.28;10477628;28;2826;-72
2023/12/05 04:36:08;;;;;;;;;;;;;;;-0.31;100.00;94798.44;10474676;28;2851;-74
2023/12/05 04:41:11;;;;;;;;;;;;;;;-0.39;100.00;94804.03;10480768;28;2832;-73
2023/12/05 04:46:13;;;;;;;;;;;;;;;-0.43;100.00;94804.75;10477734;28;2799;-73
2023/12/05 04:51:16;;;;;;;;;;;;;;;-0.46;100.00;94815.75;10470904;28;2948;-73
2023/12/05 04:56:18;;;;;;;;;;;;;;;-0.51;100.00;94808.50;10469694;28;2912;-75
2023/12/05 05:01:20;;;;;;;;;;;;;;;-0.55;100.00;94810.03;10476113;28;2898;-73
2023/12/05 05:06:23;;;;;;;;;;;;;;;-0.51;100.00;94819.06;10479622;28;2911;-75
2023/12/05 05:11:25;;;;;;;;;;;;;;;-0.52;100.00;94819.31;10479204;28;2880;-73
2023/12/05 05:16:28;;;;;;;;;;;;;;;-0.52;100.00;94808.75;10474566;28;3369;-74
2023/12/05 05:21:31;;;;;;;;;;;;;;;-0.57;100.00;94812.91;10475951;28;2994;-73
2023/12/05 05:26:33;;;;;;;;;;;;;;;-0.51;100.00;94818.25;10475063;28;2835;-75
2023/12/05 05:31:36;;;;;;;;;;;;;;;-0.60;100.00;94825.72;10475055;28;2894;-75
2023/12/05 05:36:38;;;;;;;;;;;;;;;-0.71;100.00;94823.88;10470309;28;2875;-73
2023/12/05 05:41:41;;;;;;;;;;;;;;;-0.81;100.00;94813.88;10471154;28;2928;-75
2023/12/05 05:46:44;;;;;;;;;;;;;;;-0.76;100.00;94845.69;10476345;28;4713;-75
2023/12/05 05:51:46;;;;;;;;;;;;;;;-0.78;100.00;94817.88;10476445;28;3310;-75
2023/12/05 05:56:49;;;;;;;;;;;;;;;-0.76;100.00;94827.19;10478477;28;2831;-75
2023/12/05 06:01:51;;;;;;;;;;;;;;;-0.65;100.00;94836.16;10468495;28;2863;-74
2023/12/05 06:06:53;;;;;;;;;;;;;;;-0.60;100.00;94831.81;10469665;28;2829;-73
2023/12/05 06:11:56;;;;;;;;;;;;;;;-0.57;100.00;94834.00;10475999;28;2821;-74
2023/12/05 06:16:58;;;;;;;;;;;;;;;-0.53;100.00;94831.69;10468090;28;2990;-73
2023/12/05 06:22:01;;;;;;;;;;;;;;;-0.48;100.00;94838.94;10481134;28;2839;-72
2023/12/05 06:27:04;;;;;;;;;;;;;;;-0.48;100.00;94838.94;10473144;28;3234;-76
2023/12/05 06:32:06;;;;;;;;;;;;;;;-0.41;100.00;94831.72;10473845;28;3109;-71
2023/12/05 06:37:09;;;;;;;;;;;;;;;-0.36;100.00;94826.56;10468544;28;2866;-72
2023/12/05 06:42:11;;;;;;;;;;;;;;;-0.42;100.00;94832.75;10468986;28;2838;-72
2023/12/05 06:47:14;;;;;;;;;;;;;;;-0.47;100.00;94840.56;10463130;28;4736;-70
2023/12/05 06:52:19;;;;;;;;;;;;;;;-0.48;100.00;94841.59;10467225;28;2808;-71
2023/12/05 06:57:21;;;;;;;;;;;;;;;-0.50;100.00;94835.75;10464475;28;2946;-70
2023/12/05 07:02:24;;;;;;;;;;;;;;;-0.48;100.00;94845.03;10456947;28;2763;-71
2023/12/05 07:07:26;;;;;;;;;;;;;;;-0.51;100.00;94850.75;10465155;28;2923;-72
2023/12/05 07:12:29;;;;;;;;;;;;;;;-0.41;100.00;94860.78;10462332;28;2936;-69
2023/12/05 07:17:32;;;;;;;;;;;;;;;-0.30;100.00;94862.63;10462298;28;2852;-69
2023/12/05 07:22:35;;;;;;;;;;;;;;;-0.16;100.00;94873.78;10463341;28;2821;-70
2023/12/05 07:27:38;;;;;;;;;;;;;;;-0.11;100.00;94874.69;10463175;28;3148;-70
2023/12/05 07:32:41;;;;;;;;;;;;;;;0.10;100.00;94883.09;10458537;28;2899;-70
2023/12/05 07:37:44;;;;;;;;;;;;;;;0.22;100.00;94875.97;10471128;28;3079;-69
2023/12/05 07:42:46;;;;;;;;;;;;;;;0.34;100.00;94873.31;10479478;28;2364;-70
2023/12/05 07:47:49;;;;;;;;;;;;;;;0.43;100.00;94882.50;10476248;28;4788;-69
2023/12/05 07:52:51;;;;;;;;;;;;;;;0.42;100.00;94891.47;10483263;28;1913;-68
2023/12/05 07:57:54;;;;;;;;;;;;;;;0.58;100.00;94893.41;10477603;28;2189;-69
2023/12/05 08:02:57;;;;;;;;;;;;;;;0.66;100.00;94881.66;10480760;28;1814;-69
2023/12/05 08:08:00;;;;;;;;;;;;;;;0.84;100.00;94878.84;10486421;28;1616;-67
2023/12/05 08:13:03;;;;;;;;;;;;;;;1.00;100.00;94875.44;10479017;28;1973;-69
2023/12/05 08:18:05;;;;;;;;;;;;;;;1.11;100.00;94868.53;10478005;28;1894;-66
2023/12/05 08:23:09;;;;;;;;;;;;;;;1.10;100.00;94882.00;10482541;28;1898;-79
2023/12/05 08:28:11;;;;;;;;;;;;;;;1.32;100.00;94880.28;10474646;28;1843;-69
2023/12/05 08:33:13;;;;;;;;;;;;;;;1.29;100.00;94880.75;10481281;28;2429;-68
2023/12/05 08:38:16;;;;;;;;;;;;;;;1.50;100.00;94881.91;10479376;28;2891;-67
2023/12/05 08:43:18;;;;;;;;;;;;;;;1.62;100.00;94886.13;10483475;28;4601;-68
2023/12/05 08:48:21;;;;;;;;;;;;;;;1.30;100.00;94891.13;10480009;28;2911;-66
2023/12/05 08:53:24;;;;;;;;;;;;;;;1.13;100.00;94908.78;10470838;28;2895;-66
2023/12/05 08:58:26;;;;;;;;;;;;;;;1.10;100.00;94909.25;10474440;28;2824;-67
2023/12/05 09:03:29;;;;;;;;;;;;;;;1.39;100.00;94906.59;10468559;28;2921;-69
2023/12/05 09:08:31;;;;;;;;;;;;;;;1.87;100.00;94904.28;10470201;28;2987;-69
2023/12/05 09:13:34;;;;;;;;;;;;;;;2.04;100.00;94904.31;10470566;28;2924;-71
2023/12/05 09:18:37;;;;;;;;;;;;;;;2.60;100.00;94906.94;10471497;28;2872;-70
2023/12/05 09:23:39;;;;;;;;;;;;;;;2.46;100.00;94911.81;10467061;28;3064;-68
2023/12/05 09:28:42;;;;;;;;;;;;;;;2.44;100.00;94900.66;10470496;28;3003;-68
2023/12/05 09:33:44;;;;;;;;;;;;;;;2.36;100.00;94906.38;10474168;28;2930;-68
2023/12/05 09:38:47;;;;;;;;;;;;;;;2.37;100.00;94907.97;10469369;28;2884;-71
2023/12/05 09:43:51;;;;;;;;;;;;;;;2.74;100.00;94897.59;10468262;28;4665;-69
2023/12/05 09:48:54;;;;;;;;;;;;;;;2.66;100.00;94893.50;10468421;28;2851;-70
2023/12/05 09:53:57;;;;;;;;;;;;;;;2.67;100.00;94902.28;10472051;28;2826;-68
2023/12/05 09:58:59;;;;;;;;;;;;;;;2.83;100.00;94892.66;10471457;28;2805;-68
2023/12/05 10:04:01;;;;;;;;;;;;;;;2.94;100.00;94894.41;10469683;28;2912;-69
2023/12/05 10:09:06;;;;;;;;;;;;;;;3.31;100.00;94880.47;10462718;28;2863;-68
2023/12/05 10:14:08;;;;;;;;;;;;;;;3.94;100.00;94852.34;10472207;28;2948;-68
2023/12/05 10:19:11;;;;;;;;;;;;;;;3.72;100.00;94863.06;10506068;27;3011;-69
2023/12/05 10:24:14;;;;;;;;;;;;;;;3.82;100.00;94859.69;10472483;28;2805;-67
2023/12/05 10:29:17;;;;;;;;;;;;;;;3.47;100.00;94861.78;10471134;28;2915;-70
2023/12/05 10:34:19;;;;;;;;;;;;;;;3.70;100.00;94858.00;10466580;28;2807;-67
2023/12/05 10:39:22;;;;;;;;;;;;;;;3.63;100.00;94857.44;10473735;28;2935;-68
2023/12/05 10:44:24;;;;;;;;;;;;;;;3.33;100.00;94870.41;10473844;28;4706;-68
2023/12/05 10:49:27;;;;;;;;;;;;;;;3.36;100.00;94868.03;10482747;28;2863;-67
2023/12/05 10:54:29;;;;;;;;;;;;;;;3.21;100.00;94881.97;10479425;28;2900;-67
2023/12/05 10:59:32;;;;;;;;;;;;;;;3.12;100.00;94875.50;10484227;28;2238;-67
2023/12/05 11:04:34;;;;;;;;;;;;;;;3.53;100.00;94879.38;10481098;28;1758;-67
2023/12/05 11:09:37;;;;;;;;;;;;;;;3.64;100.00;94874.97;10514838;28;1482;-70
2023/12/05 11:14:39;;;;;;;;;;;;;;;4.05;100.00;94869.97;10477101;28;2221;-70
2023/12/05 11:19:43;;;;;;;;;;;;;;;3.80;100.00;94866.06;10480126;28;2869;-68
2023/12/05 11:24:45;;;;;;;;;;;;;;;4.11;100.00;94863.66;10474100;28;2830;-74
2023/12/05 11:29:48;;;;;;;;;;;;;;;3.81;100.00;94869.53;10476483;28;2801;-67
2023/12/05 11:34:50;;;;;;;;;;;;;;;4.16;100.00;94869.00;10467612;28;2824;-68
2023/12/05 11:39:53;;;;;;;;;;;;;;;3.99;100.00;94874.47;10469577;28;2862;-67
2023/12/05 11:44:55;;;;;;;;;;;;;;;4.59;100.00;94873.28;10471918;28;4507;-68
2023/12/05 11:50:00;;;;;;;;;;;;;;;4.13;100.00;94880.16;10467219;28;2926;-70
2023/12/05 11:55:03;;;;;;;;;;;;;;;4.55;100.00;94877.50;10476800;28;2757;-68
2023/12/05 12:00:09;;;;;;;;;;;;;;;5.04;100.00;94869.22;10474337;28;2850;-68
2023/12/05 12:05:11;;;;;;;;;;;;;;;5.07;100.00;94859.91;10471854;28;2902;-69
2023/12/05 12:10:14;;;;;;;;;;;;;;;4.68;100.00;94870.94;10478091;28;3002;-71
2023/12/05 12:15:19;;;;;;;;;;;;;;;4.38;100.00;94874.19;10472790;28;2826;-67
2023/12/05 12:20:22;;;;;;;;;;;;;;;4.06;100.00;94882.22;10477031;28;2860;-73
2023/12/05 12:25:24;;;;;;;;;;;;;;;4.28;100.00;94879.47;10468960;28;2869;-66
2023/12/05 12:30:28;;;;;;;;;;;;;;;4.22;100.00;94883.94;10470363;28;2909;-67
2023/12/05 12:35:31;;;;;;;;;;;;;;;4.28;100.00;94880.28;10479573;28;3208;-67
2023/12/05 12:40:34;;;;;;;;;;;;;;;4.55;100.00;94871.38;10475751;28;2805;-68
2023/12/05 12:45:36;;;;;;;;;;;;;;;4.52;100.00;94880.69;10470678;28;3161;-68
2023/12/05 12:50:39;;;;;;;;;;;;;;;4.54;100.00;94875.91;10473349;28;2920;-68
2023/12/05 12:55:42;;;;;;;;;;;;;;;4.31;100.00;94879.75;10480914;28;2811;-69
2023/12/05 13:00:45;;;;;;;;;;;;;;;3.71;100.00;94880.88;10483541;28;2918;-67
2023/12/05 13:05:47;;;;;;;;;;;;;;;3.94;100.00;94878.94;10469129;28;2857;-69
2023/12/05 13:10:50;;;;;;;;;;;;;;;3.99;100.00;94876.31;10473381;28;2901;-67
2023/12/05 13:15:53;;;;;;;;;;;;;;;3.89;100.00;94876.25;10465320;28;2816;-66
2023/12/05 13:20:55;;;;;;;;;;;;;;;3.94;100.00;94873.63;10477606;28;3331;-67
2023/12/05 13:25:58;;;;;;;;;;;;;;;3.97;100.00;94881.09;10469296;28;2952;-68
2023/12/05 13:31:00;;;;;;;;;;;;;;;3.87;100.00;94888.97;10469108;28;2865;-67
2023/12/05 13:36:03;;;;;;;;;;;;;;;3.76;100.00;94894.22;10472228;28;3176;-67
2023/12/05 13:41:05;;;;;;;;;;;;;;;3.67;100.00;94889.59;10474243;28;2898;-66
2023/12/05 13:46:08;;;;;;;;;;;;;;;3.61;100.00;94894.06;10465443;28;4671;-66
2023/12/05 13:51:10;;;;;;;;;;;;;;;3.39;100.00;94901.28;10463400;28;2883;-68
2023/12/05 13:56:13;;;;;;;;;;;;;;;3.24;100.00;94902.72;10479046;28;2760;-69
2023/12/05 14:01:15;;;;;;;;;;;;;;;3.23;100.00;94914.38;10472275;28;2878;-69
2023/12/05 14:06:18;;;;;;;;;;;;;;;3.28;100.00;94907.53;10475663;28;2882;-68
2023/12/05 14:11:21;;;;;;;;;;;;;;;3.07;100.00;94912.63;10475069;28;2868;-68
2023/12/05 14:16:23;;;;;;;;;;;;;;;3.00;100.00;94912.00;10498354;27;2946;-70
2023/12/05 14:21:26;;;;;;;;;;;;;;;2.94;100.00;94918.28;10463929;28;2894;-74
2023/12/05 14:26:30;;;;;;;;;;;;;;;2.78;100.00;94921.78;10458851;28;2976;-68
2023/12/05 14:31:32;;;;;;;;;;;;;;;2.75;100.00;94930.25;10458896;28;2872;-72
2023/12/05 14:36:35;;;;;;;;;;;;;;;2.61;100.00;94935.91;10467281;28;2899;-68
2023/12/05 14:41:37;;;;;;;;;;;;;;;2.63;100.00;94935.66;10469946;28;2831;-67
2023/12/05 14:46:39;;;;;;;;;;;;;;;2.65;100.00;94939.66;10481767;28;4682;-67
2023/12/05 14:51:42;;;;;;;;;;;;;;;2.43;100.00;94949.44;10466160;28;2879;-67
2023/12/05 14:56:45;;;;;;;;;;;;;;;2.46;100.00;94948.13;10465260;28;2910;-70
2023/12/05 15:01:47;;;;;;;;;;;;;;;2.41;100.00;94951.50;10468883;28;2812;-67
2023/12/05 15:06:50;;;;;;;;;;;;;;;2.32;100.00;94952.97;10469917;28;2868;-68
2023/12/05 15:11:53;;;;;;;;;;;;;;;2.26;100.00;94948.63;10471222;28;2824;-66
2023/12/05 15:16:55;;;;;;;;;;;;;;;2.10;100.00;94951.06;10461781;28;2992;-67
2023/12/05 15:21:58;;;;;;;;;;;;;;;2.12;100.00;94961.41;10466804;28;2828;-72
2023/12/05 15:27:02;;;;;;;;;;;;;;;2.07;100.00;94972.72;10465442;28;2895;-71
2023/12/05 15:32:04;;;;;;;;;;;;;;;2.12;100.00;94970.16;10468373;28;2882;-68
2023/12/05 15:37:07;;;;;;;;;;;;;;;2.11;100.00;94970.41;10470941;28;2788;-68
2023/12/05 15:42:09;;;;;;;;;;;;;;;2.04;100.00;94978.53;10470591;28;2860;-66
2023/12/05 15:47:12;;;;;;;;;;;;;;;2.07;100.00;94985.97;10466030;28;4460;-70
2023/12/05 15:52:17;;;;;;;;;;;;;;;1.93;100.00;94986.53;10467560;28;2890;-69
2023/12/05 15:57:20;;;;;;;;;;;;;;;2.01;100.00;94984.28;10462390;28;2840;-68
2023/12/05 16:02:25;;;;;;;;;;;;;;;2.06;100.00;94988.88;10473144;28;2842;-68
2023/12/05 16:07:27;;;;;;;;;;;;;;;2.03;100.00;94992.78;10471348;28;2813;-68
2023/12/05 16:12:30;;;;;;;;;;;;;;;2.08;100.00;94989.44;10469820;28;2818;-68
2023/12/05 16:17:33;;;;;;;;;;;;;;;1.96;100.00;94997.44;10472816;28;2815;-68
2023/12/05 16:22:35;;;;;;;;;;;;;;;1.93;100.00;95002.44;10472399;28;3062;-68
2023/12/05 16:27:38;;;;;;;;;;;;;;;1.92;100.00;95004.28;10471004;28;2853;-70
2023/12/05 16:32:41;;;;;;;;;;;;;;;1.84;100.00;95004.66;10467356;28;2844;-69
2023/12/05 16:37:44;;;;;;;;;;;;;;;1.79;100.00;95012.53;10469384;28;2826;-69
2023/12/05 16:42:47;;;;;;;;;;;;;;;1.73;100.00;95024.06;10473088;28;3024;-68
2023/12/05 16:47:50;;;;;;;;;;;;;;;1.77;100.00;95030.50;10462068;28;4662;-69
2023/12/05 16:52:53;;;;;;;;;;;;;;;1.77;100.00;95023.34;10472650;28;3018;-69
2023/12/05 16:57:55;;;;;;;;;;;;;;;1.70;100.00;95032.47;10480206;28;2835;-74
2023/12/05 17:02:58;;;;;;;;;;;;;;;1.59;100.00;95024.34;10475894;28;2834;-71
2023/12/05 17:08:01;;;;;;;;;;;;;;;1.49;100.00;95032.09;10482127;28;2936;-73
2023/12/05 17:13:03;;;;;;;;;;;;;;;1.49;100.00;95028.63;10481049;28;2867;-74
2023/12/05 17:18:06;;;;;;;;;;;;;;;1.61;100.00;95032.84;10473847;28;3328;-77
2023/12/05 17:23:09;;;;;;;;;;;;;;;1.74;100.00;95020.38;10482460;28;2802;-69
2023/12/05 17:28:11;;;;;;;;;;;;;;;1.77;100.00;95009.28;10477093;28;2888;-70
2023/12/05 17:33:14;;;;;;;;;;;;;;;1.89;100.00;95004.75;10470935;28;2784;-68
2023/12/05 17:38:17;;;;;;;;;;;;;;;1.87;100.00;95006.84;10474053;28;2956;-72
2023/12/05 17:43:19;;;;;;;;;;;;;;;1.83;100.00;95008.34;10476180;28;4665;-69
2023/12/05 17:48:22;;;;;;;;;;;;;;;1.72;100.00;95011.84;10469744;28;3164;-70
2023/12/05 17:53:26;;;;;;;;;;;;;;;1.68;100.00;95019.47;10471403;28;3129;-69
2023/12/05 17:58:31;;;;;;;;;;;;;;;1.62;100.00;95018.56;10474274;28;2822;-69
2023/12/05 18:03:34;;;;;;;;;;;;;;;1.55;100.00;95020.56;10471212;28;2820;-69
2023/12/05 18:08:36;;;;;;;;;;;;;;;1.50;100.00;95022.28;10468027;28;2902;-69
2023/12/05 18:13:39;;;;;;;;;;;;;;;1.45;100.00;95022.19;10467366;28;2863;-72
2023/12/05 18:18:42;;;;;;;;;;;;;;;1.37;100.00;95033.97;10471576;28;2935;-69
2023/12/05 18:23:45;;;;;;;;;;;;;;;1.35;100.00;95033.41;10462209;28;2878;-69
2023/12/05 18:28:48;;;;;;;;;;;;;;;1.27;100.00;95036.38;10462743;28;3061;-73
2023/12/05 18:33:51;;;;;;;;;;;;;;;1.19;100.00;95042.06;10475775;28;2852;-75
2023/12/05 18:38:54;;;;;;;;;;;;;;;1.14;100.00;95047.22;10469608;28;2972;-69
2023/12/05 18:43:56;;;;;;;;;;;;;;;1.06;100.00;95053.69;10458386;28;4629;-68
2023/12/05 18:48:59;;;;;;;;;;;;;;;1.10;100.00;95059.34;10467051;28;2919;-68
2023/12/05 18:54:01;;;;;;;;;;;;;;;1.16;100.00;95072.44;10471016;28;2986;-71
2023/12/05 18:59:04;;;;;;;;;;;;;;;1.08;100.00;95067.50;10468500;28;2934;-70
2023/12/05 19:04:06;;;;;;;;;;;;;;;1.03;100.00;95073.50;10468850;28;2879;-71
2023/12/05 19:09:09;;;;;;;;;;;;;;;1.11;100.00;95085.56;10475413;28;2956;-71
2023/12/05 19:14:11;;;;;;;;;;;;;;;1.04;100.00;95080.41;10472275;28;2816;-71
2023/12/05 19:19:14;;;;;;;;;;;;;;;1.04;100.00;95077.75;10470256;28;2816;-69
2023/12/05 19:24:17;;;;;;;;;;;;;;;1.00;100.00;95086.38;10472054;28;3012;-71
2023/12/05 19:29:21;;;;;;;;;;;;;;;0.95;100.00;95078.31;10463658;28;2883;-69
2023/12/05 19:34:23;;;;;;;;;;;;;;;1.06;100.00;95086.25;10473471;28;2950;-68
2023/12/05 19:39:42;;;;;;;;;;;;;;;1.01;100.00;95094.06;10472660;28;2824;-67
2023/12/05 19:44:44;;;;;;;;;;;;;;;1.02;100.00;95101.00;10466975;28;4623;-67
2023/12/05 19:49:47;;;;;;;;;;;;;;;0.96;100.00;95093.97;10465204;28;2827;-68
2023/12/05 19:54:50;;;;;;;;;;;;;;;0.82;100.00;95095.22;10473957;28;2916;-67
2023/12/05 19:59:52;;;;;;;;;;;;;;;0.74;100.00;95096.38;10473632;28;2932;-69
2023/12/05 20:04:55;;;;;;;;;;;;;;;0.65;100.00;95102.22;10471865;28;2776;-69
2023/12/05 20:09:57;;;;;;;;;;;;;;;0.69;100.00;95103.38;10473356;28;2746;-70
2023/12/05 20:15:00;;;;;;;;;;;;;;;0.60;100.00;95100.25;10465392;28;2951;-69
2023/12/05 20:20:03;;;;;;;;;;;;;;;0.62;100.00;95098.19;10476527;28;2898;-69
2023/12/05 20:25:06;;;;;;;;;;;;;;;0.51;100.00;95094.50;10465806;28;2933;-72
2023/12/05 20:30:08;;;;;;;;;;;;;;;0.51;100.00;95112.22;10471066;28;2828;-69
2023/12/05 20:35:11;;;;;;;;;;;;;;;0.83;100.00;95107.44;10475542;28;3143;-74
2023/12/05 20:40:13;;;;;;;;;;;;;;;0.63;100.00;95106.94;10471832;28;3014;-72
2023/12/05 20:45:16;;;;;;;;;;;;;;;0.51;100.00;95115.66;10475411;28;4748;-73
2023/12/05 20:50:18;;;;;;;;;;;;;;;0.54;100.00;95117.84;10473043;28;2783;-72
2023/12/05 20:55:21;;;;;;;;;;;;;;;0.50;100.00;95115.88;10468527;28;2784;-71
2023/12/05 21:00:23;;;;;;;;;;;;;;;0.56;100.00;95124.75;10474381;28;2816;-70
2023/12/05 21:05:26;;;;;;;;;;;;;;;0.65;100.00;95116.25;10470356;28;2929;-72
2023/12/05 21:10:28;;;;;;;;;;;;;;;0.54;100.00;95117.03;10475426;28;2876;-72
2023/12/05 21:15:31;;;;;;;;;;;;;;;0.63;100.00;95109.56;10472762;28;2886;-72
2023/12/05 21:20:34;;;;;;;;;;;;;;;0.55;100.00;95100.13;10481035;28;2876;-74
2023/12/05 21:25:37;;;;;;;;;;;;;;;0.46;100.00;95102.31;10478681;28;2872;-75
2023/12/05 21:30:39;;;;;;;;;;;;;;;0.48;100.00;95108.16;10477949;28;2852;-74
2023/12/05 21:35:42;;;;;;;;;;;;;;;0.44;100.00;95101.72;10477100;28;2924;-73
2023/12/05 21:40:44;;;;;;;;;;;;;;;0.41;100.00;95106.66;10473032;28;2916;-75
2023/12/05 21:45:47;;;;;;;;;;;;;;;0.46;100.00;95109.44;10462579;28;4723;-74
2023/12/05 21:50:49;;;;;;;;;;;;;;;0.52;100.00;95104.06;10465325;28;3010;-75
2023/12/05 21:55:53;;;;;;;;;;;;;;;0.52;100.00;95109.34;10471560;28;2884;-72
2023/12/05 22:00:56;;;;;;;;;;;;;;;0.50;100.00;95105.28;10473413;28;2937;-72
2023/12/05 22:05:59;;;;;;;;;;;;;;;0.54;100.00;95106.47;10471219;28;2887;-72
2023/12/05 22:11:01;;;;;;;;;;;;;;;0.54;100.00;95109.09;10465564;28;2805;-71
2023/12/05 22:16:04;;;;;;;;;;;;;;;0.62;100.00;95107.97;10470631;28;2784;-72
2023/12/05 22:21:06;;;;;;;;;;;;;;;0.62;100.00;95102.66;10471449;28;2930;-74
2023/12/05 22:26:09;;;;;;;;;;;;;;;0.81;100.00;95112.13;10466647;28;2917;-72
2023/12/05 22:31:12;;;;;;;;;;;;;;;0.86;100.00;95108.81;10474350;28;2853;-76
2023/12/05 22:36:16;;;;;;;;;;;;;;;0.76;100.00;95110.19;10474701;28;2889;-77
2023/12/05 22:41:19;;;;;;;;;;;;;;;0.79;100.00;95115.00;10467829;28;3041;-73
2023/12/05 22:46:21;;;;;;;;;;;;;;;0.77;100.00;95111.00;10469869;28;4659;-79
2023/12/05 22:51:25;;;;;;;;;;;;;;;0.80;100.00;95105.22;10469983;28;2875;-73
2023/12/05 22:56:27;;;;;;;;;;;;;;;0.80;100.00;95111.31;10464481;28;2942;-71
2023/12/05 23:01:30;;;;;;;;;;;;;;;0.78;100.00;95117.88;10468131;28;2905;-73
2023/12/05 23:06:33;;;;;;;;;;;;;;;0.80;100.00;95119.25;10470949;28;3087;-73
2023/12/05 23:11:36;;;;;;;;;;;;;;;0.85;100.00;95115.94;10466979;28;2868;-73
2023/12/05 23:16:38;;;;;;;;;;;;;;;0.90;100.00;95116.06;10467617;28;2855;-72
2023/12/05 23:21:40;;;;;;;;;;;;;;;1.05;100.00;95112.97;10473140;28;2816;-72
2023/12/05 23:26:43;;;;;;;;;;;;;;;1.05;100.00;95110.31;10467302;28;2819;-72
2023/12/05 23:31:45;;;;;;;;;;;;;;;1.04;100.00;95114.00;10464968;28;2887;-72
2023/12/05 23:36:48;;;;;;;;;;;;;;;1.07;100.00;95113.53;10492001;27;2882;-74
2023/12/05 23:41:51;;;;;;;;;;;;;;;1.13;100.00;95114.44;10468399;28;3128;-73
2023/12/05 23:46:53;;;;;;;;;;;;;;;1.19;100.00;95113.53;10462546;28;4653;-72
2023/12/05 23:51:56;;;;;;;;;;;;;;;1.26;100.00;95114.22;10467453;28;2824;-74
2023/12/05 23:56:58;;;;;;;;;;;;;;;1.21;100.00;95117.56;10459579;28;2877;-74
